Time;durP1;ratioP1;P1;durP2;ratioP2;P2;SDS_P1;SDS_P2;PMS_P1;PMS_P2;Temp;Humidity;BMP_temperature;BMP_pressure;BME280_temperature;BME280_humidity;BME280_pressure;Samples;Min_cycle;Max_cycle;Signal;HPM_P1;HPM_P2
2023/06/12 00:01:48;;;;;;;;;18.00;18.00;;;;;-147.17;100.00;59696.56;5079579;28;8923;-69
2023/06/12 00:04:14;;;;;;;;;17.67;17.33;;;;;-147.17;100.00;59696.56;5092542;28;8800;-68
2023/06/12 00:06:40;;;;;;;;;19.00;18.33;;;;;-147.17;100.00;59696.56;5091456;28;8812;-68
2023/06/12 00:09:06;;;;;;;;;19.00;19.00;;;;;-147.17;100.00;59696.56;5091841;28;9526;-68
2023/06/12 00:11:32;;;;;;;;;17.33;16.67;;;;;-147.17;100.00;59696.56;5087916;28;8829;-68
2023/06/12 00:13:57;;;;;;;;;20.33;19.33;;;;;-147.17;100.00;59696.56;5091394;28;8784;-68
2023/06/12 00:16:23;;;;;;;;;19.67;19.00;;;;;-147.17;100.00;59696.56;5084584;28;9520;-68
2023/06/12 00:18:49;;;;;;;;;19.67;19.00;;;;;-147.17;100.00;59696.56;5062520;28;8808;-69
2023/06/12 00:21:15;;;;;;;;;20.67;20.33;;;;;-147.17;100.00;59696.56;5087508;28;8804;-67
2023/06/12 00:23:40;;;;;;;;;19.67;19.33;;;;;-147.17;100.00;59696.56;5089928;28;10198;-67
2023/06/12 00:26:06;;;;;;;;;19.00;18.00;;;;;-147.17;100.00;59696.56;5090713;28;9523;-67
2023/06/12 00:28:32;;;;;;;;;20.67;20.00;;;;;-147.17;100.00;59696.56;5063300;28;9599;-70
2023/06/12 00:30:58;;;;;;;;;20.00;20.00;;;;;-147.17;100.00;59696.56;5092950;28;8905;-69
2023/06/12 00:33:24;;;;;;;;;18.67;18.33;;;;;-147.17;100.00;59696.56;5086459;28;9516;-68
2023/06/12 00:35:50;;;;;;;;;21.00;20.00;;;;;-147.17;100.00;59696.56;5077447;28;9486;-69
2023/06/12 00:38:16;;;;;;;;;20.33;19.67;;;;;-147.17;100.00;59696.56;5073308;28;8881;-68
2023/06/12 00:40:41;;;;;;;;;17.67;16.67;;;;;-147.17;100.00;59696.56;5086502;28;9272;-69
2023/06/12 00:43:08;;;;;;;;;15.00;14.67;;;;;-147.17;100.00;59696.56;5079514;28;8804;-69
2023/06/12 00:45:35;;;;;;;;;17.33;16.00;;;;;-147.17;100.00;59696.56;5085267;28;9653;-69
2023/06/12 00:48:01;;;;;;;;;18.00;18.00;;;;;-147.17;100.00;59696.56;5085577;28;9108;-68
2023/06/12 00:50:27;;;;;;;;;17.33;17.00;;;;;-147.17;100.00;59696.56;5070204;28;9135;-68
2023/06/12 00:52:54;;;;;;;;;16.00;15.00;;;;;-147.17;100.00;59696.56;5090554;28;8877;-68
2023/06/12 00:55:20;;;;;;;;;14.67;14.00;;;;;-147.17;100.00;59696.56;5089277;28;9680;-68
2023/06/12 00:57:47;;;;;;;;;16.33;15.67;;;;;-147.17;100.00;59696.56;5082979;28;8979;-67
2023/06/12 01:00:14;;;;;;;;;14.00;14.00;;;;;-147.17;100.00;59696.56;5083063;28;8783;-67
2023/06/12 01:02:52;;;;;;;;;16.33;13.33;;;;;-147.17;100.00;59696.56;5078491;28;9048;-69
2023/06/12 01:05:34;;;;;;;;;10.00;10.00;;;;;-147.17;100.00;59696.56;5072101;28;9926;-70
2023/06/12 01:08:15;;;;;;;;;15.00;14.00;;;;;-147.17;100.00;59696.56;5085279;28;9020;-67
2023/06/12 01:10:51;;;;;;;;;15.00;15.00;;;;;-147.17;100.00;59696.56;5091433;28;8892;-69
2023/06/12 01:13:18;;;;;;;;;8.00;7.67;;;;;-147.17;100.00;59696.56;5089057;28;8889;-68
2023/06/12 01:15:44;;;;;;;;;14.67;14.67;;;;;-147.17;100.00;59696.56;5091382;28;8859;-69
2023/06/12 01:18:09;;;;;;;;;14.00;13.00;;;;;-147.17;100.00;59696.56;5091914;28;8968;-69
2023/06/12 01:20:35;;;;;;;;;14.00;13.00;;;;;-147.17;100.00;59696.56;5090555;28;8812;-69
2023/06/12 01:23:31;;;;;;;;;15.67;15.00;;;;;-147.17;100.00;59696.56;5083864;28;8812;-69
2023/06/12 01:26:43;;;;;;;;;13.33;12.33;;;;;-147.17;100.00;59696.56;5077072;28;8765;-69
2023/06/12 01:29:39;;;;;;;;;12.67;12.67;;;;;-147.17;100.00;59696.56;5091751;28;9059;-69
2023/06/12 01:32:12;;;;;;;;;14.75;13.00;;;;;-147.17;100.00;59696.56;5087816;28;8965;-69
2023/06/12 01:34:50;;;;;;;;;14.00;14.00;;;;;-147.17;100.00;59696.56;5090724;28;8784;-69
2023/06/12 01:37:47;;;;;;;;;14.00;14.00;;;;;-147.17;100.00;59696.56;5073704;28;8846;-68
2023/06/12 01:40:14;;;;;;;;;14.67;12.67;;;;;-147.17;100.00;59696.56;5089732;28;9182;-68
2023/06/12 01:42:40;;;;;;;;;16.33;15.33;;;;;-147.17;100.00;59696.56;5086970;28;9065;-68
2023/06/12 01:45:06;;;;;;;;;13.00;13.00;;;;;-147.17;100.00;59696.56;5090248;28;15511;-68
2023/06/12 01:47:32;;;;;;;;;14.00;13.33;;;;;-147.17;100.00;59696.56;5079113;28;8799;-68
2023/06/12 01:49:57;;;;;;;;;14.33;14.00;;;;;-147.17;100.00;59696.56;5074089;28;9302;-68
2023/06/12 01:52:22;;;;;;;;;12.67;12.00;;;;;-147.17;100.00;59696.56;5084454;28;8883;-68
2023/06/12 01:54:48;;;;;;;;;13.00;12.00;;;;;-147.17;100.00;59696.56;5072710;28;8802;-68
2023/06/12 01:57:14;;;;;;;;;13.33;11.00;;;;;-147.17;100.00;59696.56;5086635;28;8951;-69
2023/06/12 01:59:39;;;;;;;;;14.00;13.00;;;;;-147.17;100.00;59696.56;5086676;28;8847;-68
2023/06/12 02:02:05;;;;;;;;;14.00;14.00;;;;;-147.17;100.00;59696.56;5082976;28;8824;-68
2023/06/12 02:04:30;;;;;;;;;16.33;15.67;;;;;-147.17;100.00;59696.56;5072860;28;8786;-69
2023/06/12 02:06:56;;;;;;;;;14.33;13.00;;;;;-147.17;100.00;59696.56;5078976;28;8794;-68
2023/06/12 02:09:21;;;;;;;;;16.00;16.00;;;;;-147.17;100.00;59696.56;5080234;28;8788;-69
2023/06/12 02:11:48;;;;;;;;;14.67;14.00;;;;;-147.17;100.00;59696.56;5090412;28;9951;-69
2023/06/12 02:14:13;;;;;;;;;16.00;15.67;;;;;-147.17;100.00;59696.56;5084904;28;8974;-68
2023/06/12 02:16:39;;;;;;;;;14.00;14.00;;;;;-147.17;100.00;59696.56;5080073;28;9127;-68
2023/06/12 02:19:04;;;;;;;;;15.33;14.67;;;;;-147.17;100.00;59696.56;5072402;28;8833;-68
2023/06/12 02:21:29;;;;;;;;;16.33;15.67;;;;;-147.17;100.00;59696.56;5079249;28;8812;-68
2023/06/12 02:23:55;;;;;;;;;16.00;14.33;;;;;-147.17;100.00;59696.56;5087523;28;8835;-68
2023/06/12 02:26:20;;;;;;;;;14.33;13.33;;;;;-147.17;100.00;59696.56;5075830;28;8819;-69
2023/06/12 02:29:04;;;;;;;;;13.00;13.00;;;;;-147.17;100.00;59696.56;5071821;28;8844;-68
2023/06/12 02:31:30;;;;;;;;;14.33;13.67;;;;;-147.17;100.00;59696.56;5070977;28;8790;-68
2023/06/12 02:33:55;;;;;;;;;15.67;15.67;;;;;-147.17;100.00;59696.56;5085661;28;17420;-68
2023/06/12 02:36:20;;;;;;;;;16.33;16.00;;;;;-147.17;100.00;59696.56;5071956;28;8808;-68
2023/06/12 02:38:46;;;;;;;;;16.33;16.00;;;;;-147.17;100.00;59696.56;5089975;28;14334;-68
2023/06/12 02:41:12;;;;;;;;;17.33;17.33;;;;;-147.17;100.00;59696.56;5081085;28;8822;-68
2023/06/12 02:43:38;;;;;;;;;20.67;19.00;;;;;-147.17;100.00;59696.56;5083534;28;8816;-68
2023/06/12 02:46:03;;;;;;;;;17.00;17.00;;;;;-147.17;100.00;59696.56;5074353;28;8867;-69
2023/06/12 02:48:29;;;;;;;;;19.67;18.00;;;;;-147.17;100.00;59696.56;5071619;28;9137;-68
2023/06/12 02:50:54;;;;;;;;;17.33;16.67;;;;;-147.17;100.00;59696.56;5074050;28;8818;-69
2023/06/12 02:53:19;;;;;;;;;17.67;17.67;;;;;-147.17;100.00;59696.56;5091444;28;8881;-68
2023/06/12 02:55:45;;;;;;;;;21.33;20.33;;;;;-147.17;100.00;59696.56;5093947;28;8804;-68
2023/06/12 02:58:10;;;;;;;;;18.67;18.00;;;;;-147.17;100.00;59696.56;5079209;28;9613;-68
2023/06/12 03:00:36;;;;;;;;;22.33;22.00;;;;;-147.17;100.00;59696.56;5093059;28;8805;-68
2023/06/12 03:03:02;;;;;;;;;20.33;18.67;;;;;-147.17;100.00;59696.56;5091337;28;13791;-68
2023/06/12 03:05:28;;;;;;;;;18.67;18.67;;;;;-147.17;100.00;59696.56;5078904;28;8891;-68
2023/06/12 03:07:53;;;;;;;;;18.33;18.00;;;;;-147.17;100.00;59696.56;5079761;28;9122;-68
2023/06/12 03:10:18;;;;;;;;;17.67;17.00;;;;;-147.17;100.00;59696.56;5082969;28;8785;-68
2023/06/12 03:12:44;;;;;;;;;18.67;18.33;;;;;-147.17;100.00;59696.56;5091454;28;8863;-68
2023/06/12 03:15:21;;;;;;;;;22.50;21.00;;;;;-147.17;100.00;59696.56;3853963;28;17411175;-68
2023/06/12 03:17:47;;;;;;;;;18.50;17.75;;;;;-147.17;100.00;59696.56;4781578;28;8558923;-69
2023/06/12 03:20:14;;;;;;;;;20.67;20.67;;;;;-147.17;100.00;59696.56;5074080;28;8775;-69
2023/06/12 03:22:43;;;;;;;;;20.00;18.00;;;;;-147.17;100.00;59696.56;5087742;28;8804;-69
2023/06/12 03:25:10;;;;;;;;;18.67;17.00;;;;;-147.17;100.00;59696.56;5085444;28;8937;-69
2023/06/12 03:27:36;;;;;;;;;19.33;18.00;;;;;-147.17;100.00;59696.56;5093466;28;9094;-68
2023/06/12 03:30:02;;;;;;;;;16.00;15.33;;;;;-147.17;100.00;59696.56;5084718;28;8963;-68
2023/06/12 03:32:28;;;;;;;;;16.00;15.00;;;;;-147.17;100.00;59696.56;5085530;28;11430;-69
2023/06/12 03:34:54;;;;;;;;;22.67;18.33;;;;;-147.17;100.00;59696.56;5077129;28;9108;-69
2023/06/12 03:37:19;;;;;;;;;15.33;15.33;;;;;-147.17;100.00;59696.56;5078220;28;11474;-69
2023/06/12 03:39:45;;;;;;;;;20.33;18.33;;;;;-147.17;100.00;59696.56;5080285;28;8801;-68
2023/06/12 03:42:10;;;;;;;;;18.33;16.33;;;;;-147.17;100.00;59696.56;5077440;28;16206;-68
2023/06/12 03:44:36;;;;;;;;;15.67;15.00;;;;;-147.17;100.00;59696.56;5055462;28;8799;-68
2023/06/12 03:47:01;;;;;;;;;19.00;17.67;;;;;-147.17;100.00;59696.56;5074577;28;8806;-68
2023/06/12 03:49:27;;;;;;;;;15.33;15.33;;;;;-147.17;100.00;59696.56;5086675;28;8806;-69
2023/06/12 03:51:52;;;;;;;;;16.00;15.67;;;;;-147.17;100.00;59696.56;5087926;28;8910;-69
2023/06/12 03:54:18;;;;;;;;;18.33;17.33;;;;;-147.17;100.00;59696.56;5090849;28;9580;-68
2023/06/12 03:56:44;;;;;;;;;19.00;17.67;;;;;-147.17;100.00;59696.56;5092594;28;8787;-69
2023/06/12 03:59:10;;;;;;;;;17.33;16.00;;;;;-147.17;100.00;59696.56;5074774;28;9027;-68
2023/06/12 04:01:35;;;;;;;;;20.00;16.33;;;;;-147.17;100.00;59696.56;5086390;28;10188;-68
2023/06/12 04:04:01;;;;;;;;;18.00;17.33;;;;;-147.17;100.00;59696.56;5082874;28;8798;-68
2023/06/12 04:06:29;;;;;;;;;19.00;17.00;;;;;-147.17;100.00;59696.56;5090004;28;8787;-68
2023/06/12 04:08:54;;;;;;;;;15.67;15.67;;;;;-147.17;100.00;59696.56;5091156;28;8878;-69
2023/06/12 04:11:20;;;;;;;;;19.67;18.33;;;;;-147.17;100.00;59696.56;5092282;28;8983;-68
2023/06/12 04:13:46;;;;;;;;;17.33;17.33;;;;;-147.17;100.00;59696.56;5093544;28;8862;-69
2023/06/12 04:16:11;;;;;;;;;20.00;19.00;;;;;-147.17;100.00;59696.56;5075375;28;9345;-69
2023/06/12 04:18:39;;;;;;;;;21.00;20.00;;;;;-147.17;100.00;59696.56;5073154;28;8799;-68
2023/06/12 04:21:06;;;;;;;;;19.67;19.33;;;;;-147.17;100.00;59696.56;5080068;28;8809;-69
2023/06/12 04:23:32;;;;;;;;;20.33;20.33;;;;;-147.17;100.00;59696.56;5091282;28;9302;-68
2023/06/12 04:26:04;;;;;;;;;18.67;18.33;;;;;-147.17;100.00;59696.56;5093105;28;9362;-68
2023/06/12 04:28:30;;;;;;;;;22.00;20.67;;;;;-147.17;100.00;59696.56;5075947;28;8927;-69
2023/06/12 04:30:55;;;;;;;;;21.33;20.67;;;;;-147.17;100.00;59696.56;5092422;28;9361;-68
2023/06/12 04:33:21;;;;;;;;;22.33;21.00;;;;;-147.17;100.00;59696.56;5093381;28;8796;-68
2023/06/12 04:35:46;;;;;;;;;22.33;22.00;;;;;-147.17;100.00;59696.56;5092916;28;8895;-68
2023/06/12 04:38:12;;;;;;;;;19.67;19.33;;;;;-147.17;100.00;59696.56;5090981;28;8891;-69
2023/06/12 04:40:37;;;;;;;;;23.33;21.00;;;;;-147.17;100.00;59696.56;5077246;28;8813;-69
2023/06/12 04:43:05;;;;;;;;;21.33;20.33;;;;;-147.17;100.00;59696.56;5085802;28;8792;-69
2023/06/12 04:45:32;;;;;;;;;21.67;20.67;;;;;-147.17;100.00;59696.56;5092984;28;8820;-69
2023/06/12 04:47:57;;;;;;;;;19.33;18.00;;;;;-147.17;100.00;59696.56;5092607;28;9936;-68
2023/06/12 04:50:23;;;;;;;;;22.00;21.33;;;;;-147.17;100.00;59696.56;5090567;28;9239;-68
2023/06/12 04:52:50;;;;;;;;;21.67;20.67;;;;;-147.17;100.00;59696.56;5092768;28;8761;-69
2023/06/12 04:55:20;;;;;;;;;24.67;23.33;;;;;-147.17;100.00;59696.56;5075109;28;9244;-68
2023/06/12 04:57:47;;;;;;;;;20.33;20.00;;;;;-147.17;100.00;59696.56;5072255;28;9341;-69
2023/06/12 05:00:15;;;;;;;;;15.00;15.00;;;;;-147.17;100.00;59696.56;5090291;28;9103;-69
2023/06/12 05:02:41;;;;;;;;;20.67;18.00;;;;;-147.17;100.00;59696.56;5073947;28;9880;-69
2023/06/12 05:05:07;;;;;;;;;17.00;17.00;;;;;-147.17;100.00;59696.56;5091687;28;9280;-68
2023/06/12 05:07:34;;;;;;;;;21.33;18.67;;;;;-147.17;100.00;59696.56;5070154;28;8928;-69
2023/06/12 05:10:00;;;;;;;;;17.33;17.33;;;;;-147.17;100.00;59696.56;5081469;28;8847;-69
2023/06/12 05:12:25;;;;;;;;;18.00;18.00;;;;;-147.17;100.00;59696.56;5091353;28;9161;-69
2023/06/12 05:14:50;;;;;;;;;19.67;18.67;;;;;-147.17;100.00;59696.56;5075512;28;9425;-69
2023/06/12 05:17:16;;;;;;;;;19.00;19.00;;;;;-147.17;100.00;59696.56;5089648;28;8789;-68
2023/06/12 05:19:42;;;;;;;;;21.00;21.00;;;;;-147.17;100.00;59696.56;5091802;28;8946;-69
2023/06/12 05:22:07;;;;;;;;;21.33;21.33;;;;;-147.17;100.00;59696.56;5063932;28;8916;-68
2023/06/12 05:24:32;;;;;;;;;21.33;21.33;;;;;-147.17;100.00;59696.56;5087571;28;9526;-69
2023/06/12 05:26:59;;;;;;;;;18.67;18.67;;;;;-147.17;100.00;59696.56;5092214;28;8805;-68
2023/06/12 05:29:26;;;;;;;;;20.33;17.33;;;;;-147.17;100.00;59696.56;5092014;28;8882;-68
2023/06/12 05:31:51;;;;;;;;;19.33;17.00;;;;;-147.17;100.00;59696.56;5091136;28;9942;-68
2023/06/12 05:34:17;;;;;;;;;17.67;17.33;;;;;-147.17;100.00;59696.56;5086094;28;9231;-69
2023/06/12 05:36:42;;;;;;;;;21.00;21.00;;;;;-147.17;100.00;59696.56;5088920;28;8808;-68
2023/06/12 05:39:07;;;;;;;;;19.00;18.33;;;;;-147.17;100.00;59696.56;5089877;28;8887;-68
2023/06/12 05:41:33;;;;;;;;;19.67;18.67;;;;;-147.17;100.00;59696.56;5084183;28;18461;-68
2023/06/12 05:43:58;;;;;;;;;17.00;17.00;;;;;-147.17;100.00;59696.56;5090382;28;9706;-67
2023/06/12 05:46:23;;;;;;;;;19.67;17.67;;;;;-147.17;100.00;59696.56;5063339;28;8830;-67
2023/06/12 05:48:49;;;;;;;;;19.67;17.67;;;;;-147.17;100.00;59696.56;5084745;28;8816;-67
2023/06/12 05:51:15;;;;;;;;;19.33;18.67;;;;;-147.17;100.00;59696.56;5089119;28;8777;-67
2023/06/12 05:53:44;;;;;;;;;16.00;15.00;;;;;-147.17;100.00;59696.56;5083082;28;9244;-67
2023/06/12 05:56:10;;;;;;;;;21.67;20.33;;;;;-147.17;100.00;59696.56;5085818;28;8792;-68
2023/06/12 05:58:36;;;;;;;;;16.00;16.00;;;;;-147.17;100.00;59696.56;5091415;28;9224;-67
2023/06/12 06:01:02;;;;;;;;;22.00;20.00;;;;;-147.17;100.00;59696.56;5084503;28;9086;-66
2023/06/12 06:03:32;;;;;;;;;15.00;14.33;;;;;-147.17;100.00;59696.56;5089006;28;8796;-66
2023/06/12 06:05:58;;;;;;;;;15.67;15.00;;;;;-147.17;100.00;59696.56;5091266;28;8877;-66
2023/06/12 06:08:23;;;;;;;;;18.00;16.67;;;;;-147.17;100.00;59696.56;5089503;28;9124;-66
2023/06/12 06:10:49;;;;;;;;;15.00;15.00;;;;;-147.17;100.00;59696.56;5084228;28;9533;-66
2023/06/12 06:13:14;;;;;;;;;18.33;18.00;;;;;-147.17;100.00;59696.56;5066637;28;8954;-68
2023/06/12 06:15:39;;;;;;;;;15.00;14.67;;;;;-147.17;100.00;59696.56;5086367;28;8812;-65
2023/06/12 06:18:06;;;;;;;;;13.67;13.67;;;;;-147.17;100.00;59696.56;5084492;28;8850;-64
2023/06/12 06:20:31;;;;;;;;;16.00;15.00;;;;;-147.17;100.00;59696.56;5080959;28;8792;-67
2023/06/12 06:22:57;;;;;;;;;15.67;15.67;;;;;-147.17;100.00;59696.56;5087258;28;9142;-67
2023/06/12 06:25:23;;;;;;;;;17.00;16.33;;;;;-147.17;100.00;59696.56;5084764;28;8935;-66
2023/06/12 06:27:48;;;;;;;;;16.00;13.67;;;;;-147.17;100.00;59696.56;5087266;28;8796;-66
2023/06/12 06:30:14;;;;;;;;;19.00;18.00;;;;;-147.17;100.00;59696.56;5076314;28;11860;-67
2023/06/12 06:32:39;;;;;;;;;14.00;13.67;;;;;-147.17;100.00;59696.56;5070557;28;8815;-66
2023/06/12 06:35:05;;;;;;;;;15.00;15.00;;;;;-147.17;100.00;59696.56;5052461;28;8823;-66
2023/06/12 06:37:31;;;;;;;;;19.00;17.67;;;;;-147.17;100.00;59696.56;5078123;28;8827;-66
2023/06/12 06:39:56;;;;;;;;;15.33;14.67;;;;;-147.17;100.00;59696.56;5074174;28;8928;-66
2023/06/12 06:42:21;;;;;;;;;18.33;17.33;;;;;-147.17;100.00;59696.56;5077171;28;9601;-66
2023/06/12 06:44:49;;;;;;;;;15.67;15.00;;;;;-147.17;100.00;59696.56;5082231;28;8969;-66
2023/06/12 06:47:14;;;;;;;;;14.00;13.33;;;;;-147.17;100.00;59696.56;5082264;28;8793;-65
2023/06/12 06:49:40;;;;;;;;;20.33;19.33;;;;;-147.17;100.00;59696.56;5074283;28;8984;-67
2023/06/12 06:52:06;;;;;;;;;16.00;14.33;;;;;-147.17;100.00;59696.56;5088415;28;8820;-66
2023/06/12 06:54:31;;;;;;;;;19.00;18.67;;;;;-147.17;100.00;59696.56;5090441;28;8828;-66
2023/06/12 06:56:57;;;;;;;;;15.33;15.33;;;;;-147.17;100.00;59696.56;5090053;28;8788;-67
2023/06/12 06:59:22;;;;;;;;;28.00;28.00;;;;;-147.17;100.00;59696.56;5090343;28;9518;-67
2023/06/12 07:01:48;;;;;;;;;14.67;14.33;;;;;-147.17;100.00;59696.56;5089073;28;8819;-67
2023/06/12 07:04:14;;;;;;;;;19.33;17.67;;;;;-147.17;100.00;59696.56;5090159;28;11463;-66
2023/06/12 07:06:39;;;;;;;;;19.67;17.33;;;;;-147.17;100.00;59696.56;5090919;28;9001;-67
2023/06/12 07:09:04;;;;;;;;;17.00;16.33;;;;;-147.17;100.00;59696.56;5086820;28;10324;-66
2023/06/12 07:11:30;;;;;;;;;14.67;14.67;;;;;-147.17;100.00;59696.56;5057398;28;8847;-66
2023/06/12 07:13:56;;;;;;;;;16.67;16.00;;;;;-147.17;100.00;59696.56;5078015;28;8816;-67
2023/06/12 07:16:21;;;;;;;;;14.00;13.33;;;;;-147.17;100.00;59696.56;5068337;28;8908;-66
2023/06/12 07:18:46;;;;;;;;;13.33;13.33;;;;;-147.17;100.00;59696.56;5076671;28;8814;-66
2023/06/12 07:21:12;;;;;;;;;14.67;13.67;;;;;-147.17;100.00;59696.56;5088382;28;8842;-66
2023/06/12 07:23:37;;;;;;;;;16.67;15.67;;;;;-147.17;100.00;59696.56;5071997;28;8890;-66
2023/06/12 07:26:02;;;;;;;;;15.33;15.00;;;;;-147.17;100.00;59696.56;5090018;28;8878;-66
2023/06/12 07:28:28;;;;;;;;;18.67;18.00;;;;;-147.17;100.00;59696.56;5087913;28;8784;-66
2023/06/12 07:30:53;;;;;;;;;14.67;14.67;;;;;-147.17;100.00;59696.56;5089805;28;8833;-66
2023/06/12 07:33:19;;;;;;;;;16.33;15.67;;;;;-147.17;100.00;59696.56;5081217;28;8836;-67
2023/06/12 07:35:44;;;;;;;;;14.00;14.00;;;;;-147.17;100.00;59696.56;5075445;28;8827;-66
2023/06/12 07:38:10;;;;;;;;;21.33;18.67;;;;;-147.17;100.00;59696.56;5080307;28;8784;-67
2023/06/12 07:40:35;;;;;;;;;17.00;17.00;;;;;-147.17;100.00;59696.56;5082170;28;11511;-66
2023/06/12 07:43:00;;;;;;;;;15.00;15.00;;;;;-147.17;100.00;59696.56;5073326;28;8833;-66
2023/06/12 07:45:26;;;;;;;;;15.33;15.00;;;;;-147.17;100.00;59696.56;5073453;28;8836;-66
2023/06/12 07:47:54;;;;;;;;;17.33;15.67;;;;;-147.17;100.00;59696.56;5092819;28;8804;-66
2023/06/12 07:50:20;;;;;;;;;16.33;15.00;;;;;-147.17;100.00;59696.56;5091600;28;8800;-66
2023/06/12 07:52:45;;;;;;;;;15.33;15.33;;;;;-147.17;100.00;59696.56;5087024;28;9058;-66
2023/06/12 07:55:10;;;;;;;;;17.33;17.00;;;;;-147.17;100.00;59696.56;5077664;28;8938;-66
2023/06/12 07:57:36;;;;;;;;;15.67;15.67;;;;;-147.17;100.00;59696.56;5077872;28;8804;-65
2023/06/12 08:00:05;;;;;;;;;15.75;15.25;;;;;-147.17;100.00;59696.56;5092360;28;8800;-66
2023/06/12 08:02:33;;;;;;;;;19.00;17.00;;;;;-147.17;100.00;59696.56;5083625;28;8822;-66
2023/06/12 08:04:59;;;;;;;;;13.67;13.67;;;;;-147.17;100.00;59696.56;5070092;28;9208;-67
2023/06/12 08:07:26;;;;;;;;;15.00;14.67;;;;;-147.17;100.00;59696.56;5085956;28;8901;-68
2023/06/12 08:09:51;;;;;;;;;15.00;14.33;;;;;-147.17;100.00;59696.56;5090318;28;8869;-68
2023/06/12 08:12:17;;;;;;;;;17.67;16.00;;;;;-147.17;100.00;59696.56;5066616;28;8966;-68
2023/06/12 08:14:42;;;;;;;;;17.00;16.67;;;;;-147.17;100.00;59696.56;5076266;28;8917;-67
2023/06/12 08:17:08;;;;;;;;;12.67;12.00;;;;;-147.17;100.00;59696.56;5073834;28;8877;-68
2023/06/12 08:19:34;;;;;;;;;16.33;16.33;;;;;-147.17;100.00;59696.56;5090303;28;8824;-68
2023/06/12 08:22:00;;;;;;;;;17.00;16.00;;;;;-147.17;100.00;59696.56;5072386;28;8810;-68
2023/06/12 08:24:29;;;;;;;;;16.00;15.33;;;;;-147.17;100.00;59696.56;5072448;28;8791;-66
2023/06/12 08:26:56;;;;;;;;;16.33;16.33;;;;;-147.17;100.00;59696.56;5092363;28;10580;-66
2023/06/12 08:29:21;;;;;;;;;18.33;18.33;;;;;-147.17;100.00;59696.56;5092770;28;9169;-66
2023/06/12 08:31:47;;;;;;;;;18.33;17.67;;;;;-147.17;100.00;59696.56;5091821;28;11249;-67
2023/06/12 08:34:12;;;;;;;;;17.00;17.00;;;;;-147.17;100.00;59696.56;5092398;28;8788;-67
2023/06/12 08:36:38;;;;;;;;;15.67;15.67;;;;;-147.17;100.00;59696.56;5091725;28;19700;-66
2023/06/12 08:39:03;;;;;;;;;15.67;15.67;;;;;-147.17;100.00;59696.56;5092947;28;8815;-66
2023/06/12 08:41:32;;;;;;;;;18.67;18.00;;;;;-147.17;100.00;59696.56;5092730;28;8838;-67
2023/06/12 08:43:59;;;;;;;;;19.00;18.33;;;;;-147.17;100.00;59696.56;5092995;28;8781;-67
2023/06/12 08:46:29;;;;;;;;;16.33;16.33;;;;;-147.17;100.00;59696.56;5081962;28;8996;-66
2023/06/12 08:48:59;;;;;;;;;17.67;16.33;;;;;-147.17;100.00;59696.56;5082353;28;9237;-66
2023/06/12 08:51:25;;;;;;;;;16.67;16.67;;;;;-147.17;100.00;59696.56;5098034;28;8867;-67
2023/06/12 08:53:50;;;;;;;;;22.33;19.33;;;;;-147.17;100.00;59696.56;5097448;28;8960;-66
2023/06/12 08:56:16;;;;;;;;;18.00;17.67;;;;;-147.17;100.00;59696.56;5096489;28;8820;-67
2023/06/12 08:58:42;;;;;;;;;22.67;21.67;;;;;-147.17;100.00;59696.56;5099208;28;8788;-66
2023/06/12 09:01:12;;;;;;;;;20.33;20.33;;;;;-147.17;100.00;59696.56;5089582;28;11680;-66
2023/06/12 09:03:43;;;;;;;;;18.00;18.00;;;;;-147.17;100.00;59696.56;4926363;28;4358107;-65
2023/06/12 09:06:11;;;;;;;;;17.67;17.67;;;;;-147.17;100.00;59696.56;5090385;28;8773;-66
2023/06/12 09:08:38;;;;;;;;;18.00;18.00;;;;;-147.17;100.00;59696.56;5081743;28;9352;-66
2023/06/12 09:11:04;;;;;;;;;23.00;23.00;;;;;-147.17;100.00;59696.56;5069280;28;9149;-66
2023/06/12 09:13:42;;;;;;;;;20.00;20.00;;;;;-147.17;100.00;59696.56;5089331;28;9896;-65
2023/06/12 09:16:13;;;;;;;;;18.33;18.33;;;;;-147.17;100.00;59696.56;5090649;28;8846;-67
2023/06/12 09:18:54;;;;;;;;;22.00;21.50;;;;;-147.17;100.00;59696.56;4568163;28;28814282;-66
2023/06/12 09:21:49;;;;;;;;;;;;;;;-147.17;100.00;59696.56;3303837;28;49219975;-66
2023/06/12 09:30:41;;;;;;;;;18.00;18.00;;;;;-147.17;100.00;59696.56;413906;28;196411169;-66
2023/06/12 09:41:06;;;;;;;;;21.50;19.50;;;;;-147.17;100.00;59696.56;2;235423571;235423571;-67
2023/06/12 09:51:08;;;;;;;;;10.50;10.50;;;;;-147.17;100.00;59696.56;2;280436655;280436655;-67
2023/06/12 10:01:19;;;;;;;;;22.50;20.50;;;;;-147.17;100.00;59696.56;2;234073446;234073446;-66
2023/06/12 10:11:19;;;;;;;;;17.00;14.00;;;;;-147.17;100.00;59696.56;2;279084188;279084188;-66
2023/06/12 10:21:30;;;;;;;;;16.50;16.50;;;;;-147.17;100.00;59696.56;2;234071570;234071570;-66
2023/06/12 10:31:30;;;;;;;;;17.00;17.00;;;;;-147.17;100.00;59696.56;2;280431837;280431837;-66
2023/06/12 10:41:39;;;;;;;;;18.50;18.50;;;;;-147.17;100.00;59696.56;2;234071963;234071963;-66
2023/06/12 10:51:50;;;;;;;;;18.50;18.50;;;;;-147.17;100.00;59696.56;2;279086484;279086484;-66
2023/06/12 11:02:05;;;;;;;;;25.00;25.00;;;;;-147.17;100.00;59696.56;2;234067306;234067306;-67
2023/06/12 11:12:08;;;;;;;;;21.50;21.50;;;;;-147.17;100.00;59696.56;2;279082713;279082713;-67
2023/06/12 11:22:16;;;;;;;;;24.50;22.50;;;;;-147.17;100.00;59696.56;2;234071544;234071544;-67
2023/06/12 11:32:16;;;;;;;;;23.50;23.50;;;;;-147.17;100.00;59696.56;2;279090321;279090321;-67
2023/06/12 11:42:24;;;;;;;;;26.50;26.50;;;;;-147.17;100.00;59696.56;2;234075418;234075418;-68
2023/06/12 11:52:23;;;;;;;;;24.00;24.00;;;;;-147.17;100.00;59696.56;2;279082488;279082488;-67
2023/06/12 12:02:41;;;;;;;;;26.00;21.00;;;;;-147.17;100.00;59696.56;2;234072398;234072398;-67
2023/06/12 12:12:41;;;;;;;;;24.00;24.00;;;;;-147.17;100.00;59696.56;2;279086691;279086691;-67
2023/06/12 12:25:35;;;;;;;;;23.67;21.00;;;;;;;;5099420;27;50875;-66
2023/06/12 12:28:02;;;;;;;;;24.33;24.33;;;;;;;;5089716;27;50849;-67
2023/06/12 12:30:27;;;;;;;;;26.00;26.00;;;;;;;;5090064;27;51168;-66
2023/06/12 12:32:54;;;;;;;;;27.00;27.00;;;;;;;;5089516;27;52409;-66
2023/06/12 12:35:20;;;;;;;;;30.75;29.50;;;;;;;;5089729;27;50987;-66
2023/06/12 12:37:46;;;;;;;;;25.33;25.00;;;;;;;;5064475;27;51003;-66
2023/06/12 12:40:13;;;;;;;;;27.75;26.50;;;;;;;;5068978;27;51113;-66
2023/06/12 12:42:39;;;;;;;;;22.67;22.00;;;;;;;;5068138;27;51106;-66
2023/06/12 12:45:05;;;;;;;;;38.00;34.00;;;;;;;;5068805;27;51062;-66
2023/06/12 12:47:31;;;;;;;;;25.33;25.33;;;;;;;;5067767;28;51031;-67
2023/06/12 12:49:56;;;;;;;;;25.33;24.67;;;;;;;;5068736;27;51199;-68
2023/06/12 12:52:21;;;;;;;;;26.75;25.50;;;;;;;;5054337;27;51595;-66
2023/06/12 12:54:47;;;;;;;;;27.67;26.00;;;;;;;;5068840;27;51093;-66
2023/06/12 12:57:12;;;;;;;;;25.00;24.75;;;;;;;;5068862;28;51009;-66
2023/06/12 12:59:37;;;;;;;;;22.67;22.67;;;;;;;;5069319;27;51387;-66
2023/06/12 13:02:03;;;;;;;;;23.33;22.33;;;;;;;;5067973;27;53719;-66
2023/06/12 13:04:28;;;;;;;;;26.67;24.67;;;;;;;;5068065;28;51103;-66
2023/06/12 13:06:53;;;;;;;;;26.33;26.33;;;;;;;;5057595;28;51065;-66
2023/06/12 13:09:18;;;;;;;;;25.33;25.00;;;;;;;;5068539;28;51072;-65
2023/06/12 13:11:43;;;;;;;;;22.00;21.67;;;;;;;;5068172;28;51947;-65
2023/06/12 13:14:09;;;;;;;;;27.33;26.33;;;;;;;;5068481;28;50943;-66
2023/06/12 13:16:34;;;;;;;;;25.00;24.75;;;;;;;;5068084;28;51063;-66
2023/06/12 13:18:59;;;;;;;;;27.25;25.25;;;;;;;;5069169;27;51111;-66
2023/06/12 13:21:25;;;;;;;;;36.00;33.00;;;;;;;;5068265;27;51209;-65
2023/06/12 13:23:50;;;;;;;;;27.75;25.75;;;;;;;;5067709;27;51187;-66
2023/06/12 13:26:15;;;;;;;;;24.33;24.33;;;;;;;;5068641;27;50939;-66
2023/06/12 13:28:41;;;;;;;;;25.33;23.67;;;;;;;;5068393;27;51152;-65
2023/06/12 13:31:06;;;;;;;;;46.25;39.50;;;;;;;;5067523;28;51020;-65
2023/06/12 13:33:31;;;;;;;;;25.50;24.50;;;;;;;;5053138;28;51001;-65